sensor_id;sensor_type;location;lat;lon;timestamp;temperature;humidity
14521;DHT22;7347;50.844;4.490;2024-03-17T06:34:57;9.40;99.90
14521;DHT22;7347;50.844;4.490;2024-03-17T06:37:24;9.40;99.90
14521;DHT22;7347;50.844;4.490;2024-03-17T06:39:51;9.60;99.90
14521;DHT22;7347;50.844;4.490;2024-03-17T06:42:18;9.70;99.90
14521;DHT22;7347;50.844;4.490;2024-03-17T06:44:44;9.80;99.90
14521;DHT22;7347;50.844;4.490;2024-03-17T06:47:12;9.80;99.90
14521;DHT22;7347;50.844;4.490;2024-03-17T06:49:39;9.80;99.90
14521;DHT22;7347;50.844;4.490;2024-03-17T06:52:07;9.80;99.90
14521;DHT22;7347;50.844;4.490;2024-03-17T06:54:34;9.80;99.90
14521;DHT22;7347;50.844;4.490;2024-03-17T06:57:01;10.00;99.90
14521;DHT22;7347;50.844;4.490;2024-03-17T06:59:28;10.10;99.90
14521;DHT22;7347;50.844;4.490;2024-03-17T07:01:54;10.20;99.90
14521;DHT22;7347;50.844;4.490;2024-03-17T07:04:21;10.20;99.90
14521;DHT22;7347;50.844;4.490;2024-03-17T07:06:48;10.30;99.90
14521;DHT22;7347;50.844;4.490;2024-03-17T07:09:17;10.30;99.90
14521;DHT22;7347;50.844;4.490;2024-03-17T07:11:44;10.30;99.90
14521;DHT22;7347;50.844;4.490;2024-03-17T07:14:11;10.50;99.90
14521;DHT22;7347;50.844;4.490;2024-03-17T07:16:37;10.80;99.90
14521;DHT22;7347;50.844;4.490;2024-03-17T07:19:04;11.20;99.90
14521;DHT22;7347;50.844;4.490;2024-03-17T07:21:31;11.40;99.90
14521;DHT22;7347;50.844;4.490;2024-03-17T07:23:58;11.50;99.90
14521;DHT22;7347;50.844;4.490;2024-03-17T07:26:31;11.70;99.90
14521;DHT22;7347;50.844;4.490;2024-03-17T07:28:58;11.60;99.90
14521;DHT22;7347;50.844;4.490;2024-03-17T07:31:25;11.60;99.90
14521;DHT22;7347;50.844;4.490;2024-03-17T07:33:52;11.40;99.90
14521;DHT22;7347;50.844;4.490;2024-03-17T07:36:19;11.30;99.90
14521;DHT22;7347;50.844;4.490;2024-03-17T07:38:47;11.10;99.90
14521;DHT22;7347;50.844;4.490;2024-03-17T07:41:14;11.10;99.90
14521;DHT22;7347;50.844;4.490;2024-03-17T07:43:42;11.20;99.90
14521;DHT22;7347;50.844;4.490;2024-03-17T07:46:10;11.30;99.90
14521;DHT22;7347;50.844;4.490;2024-03-17T07:48:39;11.30;99.90
14521;DHT22;7347;50.844;4.490;2024-03-17T07:51:07;11.20;99.90
14521;DHT22;7347;50.844;4.490;2024-03-17T07:53:35;11.10;99.90
14521;DHT22;7347;50.844;4.490;2024-03-17T07:56:03;11.00;99.90
14521;DHT22;7347;50.844;4.490;2024-03-17T07:58:31;11.10;99.90
14521;DHT22;7347;50.844;4.490;2024-03-17T08:01:01;11.20;99.90
14521;DHT22;7347;50.844;4.490;2024-03-17T08:03:28;11.40;99.90
14521;DHT22;7347;50.844;4.490;2024-03-17T08:05:57;11.60;99.90
14521;DHT22;7347;50.844;4.490;2024-03-17T08:08:24;11.90;99.90
14521;DHT22;7347;50.844;4.490;2024-03-17T08:10:51;12.10;99.90
14521;DHT22;7347;50.844;4.490;2024-03-17T08:13:18;12.40;99.90
14521;DHT22;7347;50.844;4.490;2024-03-17T08:15:46;12.60;99.90
14521;DHT22;7347;50.844;4.490;2024-03-17T19:11:22;12.50;99.90
14521;DHT22;7347;50.844;4.490;2024-03-17T19:13:49;12.50;99.90
14521;DHT22;7347;50.844;4.490;2024-03-17T19:16:16;12.60;99.90
14521;DHT22;7347;50.844;4.490;2024-03-17T19:18:43;12.60;99.90
14521;DHT22;7347;50.844;4.490;2024-03-17T19:21:11;12.50;99.90
14521;DHT22;7347;50.844;4.490;2024-03-17T19:23:39;12.50;99.90
14521;DHT22;7347;50.844;4.490;2024-03-17T19:26:08;12.50;99.90
14521;DHT22;7347;50.844;4.490;2024-03-17T19:28:39;12.60;99.90
14521;DHT22;7347;50.844;4.490;2024-03-17T19:31:06;12.60;99.90
14521;DHT22;7347;50.844;4.490;2024-03-17T19:33:35;12.60;99.90
14521;DHT22;7347;50.844;4.490;2024-03-17T19:36:03;12.60;99.90
14521;DHT22;7347;50.844;4.490;2024-03-17T19:38:31;12.60;99.90
14521;DHT22;7347;50.844;4.490;2024-03-17T19:40:59;12.60;99.90
14521;DHT22;7347;50.844;4.490;2024-03-17T19:43:28;12.60;99.90
14521;DHT22;7347;50.844;4.490;2024-03-17T19:46:01;12.50;99.90
14521;DHT22;7347;50.844;4.490;2024-03-17T19:48:35;12.50;99.90
14521;DHT22;7347;50.844;4.490;2024-03-17T19:51:07;12.60;99.90
14521;DHT22;7347;50.844;4.490;2024-03-17T19:53:33;12.60;99.90
14521;DHT22;7347;50.844;4.490;2024-03-17T19:56:00;12.60;99.90
14521;DHT22;7347;50.844;4.490;2024-03-17T19:58:27;12.50;99.90
14521;DHT22;7347;50.844;4.490;2024-03-17T20:00:54;12.50;99.90
14521;DHT22;7347;50.844;4.490;2024-03-17T20:03:22;12.50;99.90
14521;DHT22;7347;50.844;4.490;2024-03-17T20:05:49;12.60;99.90
14521;DHT22;7347;50.844;4.490;2024-03-17T20:08:17;12.60;99.90
14521;DHT22;7347;50.844;4.490;2024-03-17T20:10:46;12.50;99.90
14521;DHT22;7347;50.844;4.490;2024-03-17T20:13:14;12.60;99.90
14521;DHT22;7347;50.844;4.490;2024-03-17T20:15:41;12.60;99.90
14521;DHT22;7347;50.844;4.490;2024-03-17T20:18:08;12.50;99.90
14521;DHT22;7347;50.844;4.490;2024-03-17T20:20:36;12.50;99.90
14521;DHT22;7347;50.844;4.490;2024-03-17T20:23:03;12.50;99.90
14521;DHT22;7347;50.844;4.490;2024-03-17T20:25:30;12.50;99.90
14521;DHT22;7347;50.844;4.490;2024-03-17T20:27:57;12.50;99.90
14521;DHT22;7347;50.844;4.490;2024-03-17T20:30:26;12.60;99.90
14521;DHT22;7347;50.844;4.490;2024-03-17T20:32:54;12.60;99.90
14521;DHT22;7347;50.844;4.490;2024-03-17T20:35:22;12.60;99.90
14521;DHT22;7347;50.844;4.490;2024-03-17T20:37:51;12.70;99.90
14521;DHT22;7347;50.844;4.490;2024-03-17T20:40:19;12.70;99.90
14521;DHT22;7347;50.844;4.490;2024-03-17T20:42:46;12.70;99.90
14521;DHT22;7347;50.844;4.490;2024-03-17T20:45:13;12.70;99.90
14521;DHT22;7347;50.844;4.490;2024-03-17T20:47:42;12.70;99.90
14521;DHT22;7347;50.844;4.490;2024-03-17T20:50:09;12.70;99.90
14521;DHT22;7347;50.844;4.490;2024-03-17T20:52:43;12.80;99.90
14521;DHT22;7347;50.844;4.490;2024-03-17T20:55:12;12.70;99.90
14521;DHT22;7347;50.844;4.490;2024-03-17T20:57:41;12.90;99.90
14521;DHT22;7347;50.844;4.490;2024-03-17T21:00:09;12.80;99.90
14521;DHT22;7347;50.844;4.490;2024-03-17T21:02:45;12.90;99.90
14521;DHT22;7347;50.844;4.490;2024-03-17T21:05:13;12.80;99.90
14521;DHT22;7347;50.844;4.490;2024-03-17T21:07:40;12.80;99.90
14521;DHT22;7347;50.844;4.490;2024-03-17T21:10:08;12.90;99.90
14521;DHT22;7347;50.844;4.490;2024-03-17T21:12:38;12.90;99.90
14521;DHT22;7347;50.844;4.490;2024-03-17T21:15:06;12.90;99.90
14521;DHT22;7347;50.844;4.490;2024-03-17T21:17:35;12.90;99.90
14521;DHT22;7347;50.844;4.490;2024-03-17T21:20:02;12.90;99.90
14521;DHT22;7347;50.844;4.490;2024-03-17T21:22:31;12.90;99.90
14521;DHT22;7347;50.844;4.490;2024-03-17T21:24:59;12.80;99.90
14521;DHT22;7347;50.844;4.490;2024-03-17T21:27:27;12.80;99.90
14521;DHT22;7347;50.844;4.490;2024-03-17T21:29:57;12.80;99.90
14521;DHT22;7347;50.844;4.490;2024-03-17T21:32:24;12.80;99.90
14521;DHT22;7347;50.844;4.490;2024-03-17T21:34:51;12.80;99.90
14521;DHT22;7347;50.844;4.490;2024-03-17T21:37:20;12.90;99.90
14521;DHT22;7347;50.844;4.490;2024-03-17T21:39:47;12.80;99.90
14521;DHT22;7347;50.844;4.490;2024-03-17T21:42:14;12.80;99.90
14521;DHT22;7347;50.844;4.490;2024-03-17T21:44:41;12.90;99.90
14521;DHT22;7347;50.844;4.490;2024-03-17T21:47:09;13.00;99.90
14521;DHT22;7347;50.844;4.490;2024-03-17T21:49:37;13.10;99.90
14521;DHT22;7347;50.844;4.490;2024-03-17T21:52:04;13.20;99.90
14521;DHT22;7347;50.844;4.490;2024-03-17T21:54:31;13.20;99.90
14521;DHT22;7347;50.844;4.490;2024-03-17T21:56:57;13.20;99.90
14521;DHT22;7347;50.844;4.490;2024-03-17T21:59:25;13.10;99.90
14521;DHT22;7347;50.844;4.490;2024-03-17T22:01:52;13.00;99.90
14521;DHT22;7347;50.844;4.490;2024-03-17T22:04:20;12.80;99.90
14521;DHT22;7347;50.844;4.490;2024-03-17T22:06:47;12.80;99.90
14521;DHT22;7347;50.844;4.490;2024-03-17T22:09:14;12.70;99.90
14521;DHT22;7347;50.844;4.490;2024-03-17T22:11:41;12.70;99.90
14521;DHT22;7347;50.844;4.490;2024-03-17T22:14:08;12.60;99.90
14521;DHT22;7347;50.844;4.490;2024-03-17T22:16:34;12.60;99.90
14521;DHT22;7347;50.844;4.490;2024-03-17T22:19:03;12.50;99.90
14521;DHT22;7347;50.844;4.490;2024-03-17T22:21:33;12.50;99.90
14521;DHT22;7347;50.844;4.490;2024-03-17T22:24:00;12.40;99.90
14521;DHT22;7347;50.844;4.490;2024-03-17T22:26:28;12.40;99.90
14521;DHT22;7347;50.844;4.490;2024-03-17T22:28:55;12.40;99.90
14521;DHT22;7347;50.844;4.490;2024-03-17T22:31:22;12.40;99.90
14521;DHT22;7347;50.844;4.490;2024-03-17T22:33:50;12.30;99.90
14521;DHT22;7347;50.844;4.490;2024-03-17T22:36:17;12.30;99.90
14521;DHT22;7347;50.844;4.490;2024-03-17T22:38:46;12.20;99.90
14521;DHT22;7347;50.844;4.490;2024-03-17T22:41:14;12.30;99.90
14521;DHT22;7347;50.844;4.490;2024-03-17T22:43:43;12.30;99.90
